sensor_id;sensor_type;location;lat;lon;timestamp;pressure;altitude;pressure_sealevel;temperature;humidity
49729;BME280;66333;49.798;10.968;2023-12-20T00:00:22;98006.75;;;9.46;58.75
49729;BME280;66333;49.798;10.968;2023-12-20T00:02:53;98017.53;;;9.43;58.91
49729;BME280;66333;49.798;10.968;2023-12-20T00:05:20;98017.53;;;9.43;58.92
49729;BME280;66333;49.798;10.968;2023-12-20T00:07:46;98011.31;;;9.44;58.79
49729;BME280;66333;49.798;10.968;2023-12-20T00:10:12;98007.88;;;9.44;58.80
49729;BME280;66333;49.798;10.968;2023-12-20T00:12:39;98008.69;;;9.44;58.81
49729;BME280;66333;49.798;10.968;2023-12-20T00:15:06;98003.47;;;9.44;58.86
49729;BME280;66333;49.798;10.968;2023-12-20T00:17:34;98010.03;;;9.48;58.60
49729;BME280;66333;49.798;10.968;2023-12-20T00:20:01;98008.69;;;9.44;58.85
49729;BME280;66333;49.798;10.968;2023-12-20T00:22:27;98009.84;;;9.42;58.90
49729;BME280;66333;49.798;10.968;2023-12-20T00:24:54;98003.78;;;9.41;58.88
49729;BME280;66333;49.798;10.968;2023-12-20T00:27:20;98003.47;;;9.44;58.89
49729;BME280;66333;49.798;10.968;2023-12-20T00:29:46;97995.78;;;9.43;58.90
49729;BME280;66333;49.798;10.968;2023-12-20T00:32:15;97997.19;;;9.37;59.03
49729;BME280;66333;49.798;10.968;2023-12-20T00:34:43;97995.25;;;9.39;59.26
49729;BME280;66333;49.798;10.968;2023-12-20T00:37:10;97996.06;;;9.40;59.01
49729;BME280;66333;49.798;10.968;2023-12-20T00:39:36;97983.69;;;9.42;58.92
49729;BME280;66333;49.798;10.968;2023-12-20T00:42:03;97985.75;;;9.38;58.94
49729;BME280;66333;49.798;10.968;2023-12-20T00:44:29;97978.22;;;9.35;59.08
49729;BME280;66333;49.798;10.968;2023-12-20T00:46:56;97977.91;;;9.38;59.03
49729;BME280;66333;49.798;10.968;2023-12-20T00:49:22;97984.78;;;9.39;58.99
49729;BME280;66333;49.798;10.968;2023-12-20T00:51:50;97987.06;;;9.34;59.09
49729;BME280;66333;49.798;10.968;2023-12-20T00:54:18;97981.34;;;9.39;58.99
49729;BME280;66333;49.798;10.968;2023-12-20T00:56:44;97979.88;;;9.36;59.06
49729;BME280;66333;49.798;10.968;2023-12-20T00:59:10;97974.03;;;9.42;58.90
49729;BME280;66333;49.798;10.968;2023-12-20T01:01:37;97974.31;;;9.39;58.96
49729;BME280;66333;49.798;10.968;2023-12-20T01:04:03;97971.72;;;9.39;59.07
49729;BME280;66333;49.798;10.968;2023-12-20T01:06:30;97974.31;;;9.39;58.88
49729;BME280;66333;49.798;10.968;2023-12-20T01:08:58;97968.44;;;9.37;59.01
49729;BME280;66333;49.798;10.968;2023-12-20T01:11:24;97966.19;;;9.42;58.84
49729;BME280;66333;49.798;10.968;2023-12-20T01:13:50;97962.22;;;9.38;59.10
49729;BME280;66333;49.798;10.968;2023-12-20T01:16:17;97960.31;;;9.40;59.02
49729;BME280;66333;49.798;10.968;2023-12-20T01:18:43;97955.34;;;9.37;58.88
49729;BME280;66333;49.798;10.968;2023-12-20T01:21:10;97953.41;;;9.39;58.96
49729;BME280;66333;49.798;10.968;2023-12-20T01:23:36;97957.47;;;9.33;59.14
49729;BME280;66333;49.798;10.968;2023-12-20T01:26:04;97956.72;;;9.41;59.12
49729;BME280;66333;49.798;10.968;2023-12-20T01:28:31;97951.78;;;9.38;59.00
49729;BME280;66333;49.798;10.968;2023-12-20T01:30:57;97950.94;;;9.38;59.11
49729;BME280;66333;49.798;10.968;2023-12-20T01:33:24;97953.72;;;9.36;58.98
49729;BME280;66333;49.798;10.968;2023-12-20T01:35:50;97950.13;;;9.37;59.10
49729;BME280;66333;49.798;10.968;2023-12-20T01:38:17;97937.00;;;9.29;59.29
49729;BME280;66333;49.798;10.968;2023-12-20T01:40:44;97936.72;;;9.32;59.17
49729;BME280;66333;49.798;10.968;2023-12-20T01:43:11;97942.28;;;9.37;59.02
49729;BME280;66333;49.798;10.968;2023-12-20T01:45:38;97935.75;;;9.33;59.16
49729;BME280;66333;49.798;10.968;2023-12-20T01:48:05;97938.63;;;9.30;59.27
49729;BME280;66333;49.798;10.968;2023-12-20T01:50:35;97936.41;;;9.35;59.13
49729;BME280;66333;49.798;10.968;2023-12-20T01:53:02;97926.59;;;9.37;59.00
49729;BME280;66333;49.798;10.968;2023-12-20T01:55:32;97920.41;;;9.38;59.07
49729;BME280;66333;49.798;10.968;2023-12-20T01:57:59;97932.50;;;9.39;58.96
49729;BME280;66333;49.798;10.968;2023-12-20T02:00:28;97936.41;;;9.35;59.10
49729;BME280;66333;49.798;10.968;2023-12-20T02:02:56;97935.03;;;9.31;59.15
49729;BME280;66333;49.798;10.968;2023-12-20T02:05:25;97927.56;;;9.36;59.05
49729;BME280;66333;49.798;10.968;2023-12-20T02:07:53;97925.94;;;9.35;59.20
49729;BME280;66333;49.798;10.968;2023-12-20T02:10:19;97922.44;;;9.26;59.29
49729;BME280;66333;49.798;10.968;2023-12-20T02:12:46;97929.00;;;9.30;59.22
49729;BME280;66333;49.798;10.968;2023-12-20T02:15:12;97935.34;;;9.28;59.20
49729;BME280;66333;49.798;10.968;2023-12-20T02:17:41;97921.03;;;9.32;59.23
49729;BME280;66333;49.798;10.968;2023-12-20T02:20:07;97914.13;;;9.31;59.19
49729;BME280;66333;49.798;10.968;2023-12-20T02:22:35;97923.25;;;9.27;59.34
49729;BME280;66333;49.798;10.968;2023-12-20T02:25:02;97910.84;;;9.29;59.26
49729;BME280;66333;49.798;10.968;2023-12-20T02:27:29;97914.75;;;9.25;59.35
49729;BME280;66333;49.798;10.968;2023-12-20T02:29:56;97913.63;;;9.27;59.45
49729;BME280;66333;49.798;10.968;2023-12-20T02:32:24;97918.84;;;9.27;59.34
49729;BME280;66333;49.798;10.968;2023-12-20T02:34:52;97912.81;;;9.27;59.30
49729;BME280;66333;49.798;10.968;2023-12-20T02:37:18;97903.66;;;9.31;59.21
49729;BME280;66333;49.798;10.968;2023-12-20T02:39:46;97909.88;;;9.30;59.18
49729;BME280;66333;49.798;10.968;2023-12-20T02:42:12;97910.56;;;9.32;59.18
49729;BME280;66333;49.798;10.968;2023-12-20T02:44:39;97921.03;;;9.32;59.15
49729;BME280;66333;49.798;10.968;2023-12-20T02:47:05;97917.44;;;9.33;59.14
49729;BME280;66333;49.798;10.968;2023-12-20T02:49:32;97916.09;;;9.29;59.37
49729;BME280;66333;49.798;10.968;2023-12-20T02:51:58;97919.06;;;9.34;59.17
49729;BME280;66333;49.798;10.968;2023-12-20T02:54:24;97917.72;;;9.30;59.19
49729;BME280;66333;49.798;10.968;2023-12-20T02:56:52;97919.06;;;9.34;59.23
49729;BME280;66333;49.798;10.968;2023-12-20T02:59:19;97914.13;;;9.31;59.10
49729;BME280;66333;49.798;10.968;2023-12-20T03:01:45;97924.91;;;9.28;59.35
49729;BME280;66333;49.798;10.968;2023-12-20T03:04:12;97928.50;;;9.27;59.34
49729;BME280;66333;49.798;10.968;2023-12-20T03:06:39;97927.53;;;9.28;59.40
49729;BME280;66333;49.798;10.968;2023-12-20T03:09:05;97917.72;;;9.30;59.12
49729;BME280;66333;49.798;10.968;2023-12-20T03:11:31;97924.91;;;9.28;59.18
49729;BME280;66333;49.798;10.968;2023-12-20T03:13:59;97917.00;;;9.20;59.33
49729;BME280;66333;49.798;10.968;2023-12-20T03:16:26;97928.00;;;9.23;59.48
49729;BME280;66333;49.798;10.968;2023-12-20T03:18:52;97929.09;;;9.21;59.35
49729;BME280;66333;49.798;10.968;2023-12-20T03:21:18;97924.84;;;9.20;59.49
49729;BME280;66333;49.798;10.968;2023-12-20T03:23:45;97928.28;;;9.20;59.44
49729;BME280;66333;49.798;10.968;2023-12-20T03:26:12;97927.44;;;9.20;59.46
49729;BME280;66333;49.798;10.968;2023-12-20T03:28:38;97934.84;;;9.24;59.37
49729;BME280;66333;49.798;10.968;2023-12-20T03:31:06;97927.84;;;9.25;59.38
49729;BME280;66333;49.798;10.968;2023-12-20T03:33:33;97930.44;;;9.25;59.22
49729;BME280;66333;49.798;10.968;2023-12-20T03:35:59;97932.91;;;9.26;59.26
49729;BME280;66333;49.798;10.968;2023-12-20T03:38:25;97938.63;;;9.30;59.17
49729;BME280;66333;49.798;10.968;2023-12-20T03:40:52;97942.22;;;9.29;59.26
49729;BME280;66333;49.798;10.968;2023-12-20T03:43:18;97942.53;;;9.26;59.23
49729;BME280;66333;49.798;10.968;2023-12-20T03:45:47;97938.28;;;9.25;59.27
49729;BME280;66333;49.798;10.968;2023-12-20T03:48:15;97932.91;;;9.26;59.26
49729;BME280;66333;49.798;10.968;2023-12-20T03:50:41;97928.66;;;9.25;59.25
49729;BME280;66333;49.798;10.968;2023-12-20T03:53:08;97927.28;;;9.21;59.43
49729;BME280;66333;49.798;10.968;2023-12-20T03:55:34;97928.81;;;9.24;59.36
49729;BME280;66333;49.798;10.968;2023-12-20T03:58:00;97934.63;;;9.18;59.45
49729;BME280;66333;49.798;10.968;2023-12-20T04:00:27;97928.75;;;9.16;59.49
49729;BME280;66333;49.798;10.968;2023-12-20T04:02:53;97931.03;;;9.19;59.53
49729;BME280;66333;49.798;10.968;2023-12-20T04:05:21;97930.22;;;9.18;59.54
49729;BME280;66333;49.798;10.968;2023-12-20T04:07:47;97932.41;;;9.23;59.31
49729;BME280;66333;49.798;10.968;2023-12-20T04:10:15;97930.72;;;9.22;59.32
49729;BME280;66333;49.798;10.968;2023-12-20T04:12:42;97935.97;;;9.22;59.32
49729;BME280;66333;49.798;10.968;2023-12-20T04:15:09;97921.72;;;9.16;59.46
49729;BME280;66333;49.798;10.968;2023-12-20T04:17:37;97924.34;;;9.16;59.48
49729;BME280;66333;49.798;10.968;2023-12-20T04:20:04;97928.44;;;9.19;59.42
49729;BME280;66333;49.798;10.968;2023-12-20T04:22:32;97930.22;;;9.18;59.42
49729;BME280;66333;49.798;10.968;2023-12-20T04:24:59;97932.03;;;9.18;59.56
49729;BME280;66333;49.798;10.968;2023-12-20T04:27:25;97933.50;;;9.20;59.24
49729;BME280;66333;49.798;10.968;2023-12-20T04:29:51;97932.69;;;9.20;59.49
49729;BME280;66333;49.798;10.968;2023-12-20T04:32:18;97932.91;;;9.26;59.32
49729;BME280;66333;49.798;10.968;2023-12-20T04:34:44;97939.88;;;9.18;59.66
49729;BME280;66333;49.798;10.968;2023-12-20T04:37:11;97934.09;;;9.14;59.48
49729;BME280;66333;49.798;10.968;2023-12-20T04:39:39;97933.34;;;9.22;59.46
49729;BME280;66333;49.798;10.968;2023-12-20T04:42:06;97944.78;;;9.21;59.32
49729;BME280;66333;49.798;10.968;2023-12-20T04:44:33;97934.63;;;9.18;59.42
49729;BME280;66333;49.798;10.968;2023-12-20T04:46:59;97934.94;;;9.15;59.33
49729;BME280;66333;49.798;10.968;2023-12-20T04:49:26;97925.50;;;9.22;59.30
49729;BME280;66333;49.798;10.968;2023-12-20T04:51:52;97934.03;;;9.24;59.15
49729;BME280;66333;49.798;10.968;2023-12-20T04:54:19;97937.63;;;9.23;59.23
49729;BME280;66333;49.798;10.968;2023-12-20T04:56:47;97935.97;;;9.22;59.34
49729;BME280;66333;49.798;10.968;2023-12-20T04:59:13;97942.78;;;9.15;59.45
49729;BME280;66333;49.798;10.968;2023-12-20T05:01:40;97936.94;;;9.21;59.33
49729;BME280;66333;49.798;10.968;2023-12-20T05:04:06;97932.69;;;9.20;59.37
49729;BME280;66333;49.798;10.968;2023-12-20T05:06:33;97940.91;;;9.25;58.83
49729;BME280;66333;49.798;10.968;2023-12-20T05:08:59;97937.91;;;9.20;59.33
49729;BME280;66333;49.798;10.968;2023-12-20T05:11:26;97938.56;;;9.22;59.23
49729;BME280;66333;49.798;10.968;2023-12-20T05:13:53;97943.13;;;9.20;59.36
49729;BME280;66333;49.798;10.968;2023-12-20T05:16:20;97938.22;;;9.17;59.47
49729;BME280;66333;49.798;10.968;2023-12-20T05:18:48;97943.72;;;9.14;59.62
49729;BME280;66333;49.798;10.968;2023-12-20T05:21:15;97947.53;;;9.19;59.34
49729;BME280;66333;49.798;10.968;2023-12-20T05:23:41;97947.88;;;9.16;59.43
49729;BME280;66333;49.798;10.968;2023-12-20T05:26:08;97937.09;;;9.19;59.35
49729;BME280;66333;49.798;10.968;2023-12-20T05:28:34;97947.88;;;9.16;59.40
49729;BME280;66333;49.798;10.968;2023-12-20T05:31:02;97960.78;;;9.18;59.45
49729;BME280;66333;49.798;10.968;2023-12-20T05:33:29;97964.06;;;9.20;59.34
49729;BME280;66333;49.798;10.968;2023-12-20T05:35:55;97959.06;;;9.09;59.51
49729;BME280;66333;49.798;10.968;2023-12-20T05:38:21;97968.53;;;9.10;59.79
49729;BME280;66333;49.798;10.968;2023-12-20T05:40:48;97972.09;;;9.44;60.52
49729;BME280;66333;49.798;10.968;2023-12-20T05:43:15;97973.19;;;9.59;59.65
49729;BME280;66333;49.798;10.968;2023-12-20T05:45:41;97970.50;;;9.51;59.03
49729;BME280;66333;49.798;10.968;2023-12-20T05:48:09;97973.81;;;9.36;59.38
49729;BME280;66333;49.798;10.968;2023-12-20T05:50:38;97974.97;;;9.33;59.64
49729;BME280;66333;49.798;10.968;2023-12-20T05:53:05;97983.56;;;9.25;59.87
49729;BME280;66333;49.798;10.968;2023-12-20T05:55:32;97988.94;;;9.24;59.84
49729;BME280;66333;49.798;10.968;2023-12-20T05:57:58;97994.09;;;9.16;60.16
49729;BME280;66333;49.798;10.968;2023-12-20T06:00:24;98003.41;;;9.18;60.13
49729;BME280;66333;49.798;10.968;2023-12-20T06:02:51;98003.72;;;9.15;60.11
49729;BME280;66333;49.798;10.968;2023-12-20T06:05:19;98009.16;;;9.22;60.11
49729;BME280;66333;49.798;10.968;2023-12-20T06:07:45;98009.97;;;9.22;59.87
49729;BME280;66333;49.798;10.968;2023-12-20T06:10:13;98014.09;;;9.25;59.84
49729;BME280;66333;49.798;10.968;2023-12-20T06:12:40;98020.59;;;9.21;60.12
49729;BME280;66333;49.798;10.968;2023-12-20T06:15:07;98027.44;;;9.22;60.11
49729;BME280;66333;49.798;10.968;2023-12-20T06:17:34;98025.16;;;9.19;60.17
49729;BME280;66333;49.798;10.968;2023-12-20T06:20:00;98028.91;;;9.16;60.21
49729;BME280;66333;49.798;10.968;2023-12-20T06:22:29;98025.47;;;9.16;60.31
49729;BME280;66333;49.798;10.968;2023-12-20T06:24:55;98024.63;;;9.15;60.34
49729;BME280;66333;49.798;10.968;2023-12-20T06:27:22;98029.03;;;9.15;60.26
49729;BME280;66333;49.798;10.968;2023-12-20T06:29:48;98022.22;;;9.22;60.11
49729;BME280;66333;49.798;10.968;2023-12-20T06:32:15;98024.31;;;9.18;60.07
49729;BME280;66333;49.798;10.968;2023-12-20T06:34:41;98032.84;;;9.20;60.13
49729;BME280;66333;49.798;10.968;2023-12-20T06:37:07;98041.50;;;9.21;60.02
49729;BME280;66333;49.798;10.968;2023-12-20T06:39:35;98036.97;;;9.23;60.02
49729;BME280;66333;49.798;10.968;2023-12-20T06:42:02;98049.56;;;9.27;59.92
49729;BME280;66333;49.798;10.968;2023-12-20T06:44:29;98040.25;;;9.25;59.93
49729;BME280;66333;49.798;10.968;2023-12-20T06:46:55;98051.59;;;9.16;59.95
49729;BME280;66333;49.798;10.968;2023-12-20T06:49:21;98052.94;;;9.20;60.05
49729;BME280;66333;49.798;10.968;2023-12-20T06:51:48;98049.41;;;9.29;59.89
49729;BME280;66333;49.798;10.968;2023-12-20T06:54:14;98056.22;;;9.22;59.95
49729;BME280;66333;49.798;10.968;2023-12-20T06:56:42;98064.50;;;9.17;60.11
49729;BME280;66333;49.798;10.968;2023-12-20T06:59:09;98063.97;;;9.14;60.22
49729;BME280;66333;49.798;10.968;2023-12-20T07:01:35;98075.22;;;9.24;59.95
49729;BME280;66333;49.798;10.968;2023-12-20T07:04:02;98068.63;;;9.20;60.11
49729;BME280;66333;49.798;10.968;2023-12-20T07:06:28;98084.59;;;9.17;60.16
49729;BME280;66333;49.798;10.968;2023-12-20T07:08:54;98086.75;;;9.21;60.04
49729;BME280;66333;49.798;10.968;2023-12-20T07:11:21;98088.41;;;9.22;59.83
49729;BME280;66333;49.798;10.968;2023-12-20T07:13:49;98096.69;;;9.18;60.21
49729;BME280;66333;49.798;10.968;2023-12-20T07:16:16;98098.03;;;9.22;60.19
49729;BME280;66333;49.798;10.968;2023-12-20T07:18:42;98107.47;;;9.15;60.17
49729;BME280;66333;49.798;10.968;2023-12-20T07:21:09;98102.66;;;9.10;60.36
49729;BME280;66333;49.798;10.968;2023-12-20T07:23:35;98098.91;;;9.13;60.13
49729;BME280;66333;49.798;10.968;2023-12-20T07:26:02;98085.19;;;9.11;60.31
49729;BME280;66333;49.798;10.968;2023-12-20T07:28:29;98107.47;;;9.15;60.08
49729;BME280;66333;49.798;10.968;2023-12-20T07:30:57;98104.16;;;9.13;60.08
49729;BME280;66333;49.798;10.968;2023-12-20T07:33:23;98108.03;;;9.09;60.25
49729;BME280;66333;49.798;10.968;2023-12-20T07:35:50;98109.97;;;9.07;60.42
49729;BME280;66333;49.798;10.968;2023-12-20T07:38:17;98111.47;;;9.09;60.31
49729;BME280;66333;49.798;10.968;2023-12-20T07:40:44;98109.69;;;9.10;60.18
49729;BME280;66333;49.798;10.968;2023-12-20T07:43:10;98111.31;;;9.11;60.24
49729;BME280;66333;49.798;10.968;2023-12-20T07:45:37;98106.91;;;9.11;60.22
49729;BME280;66333;49.798;10.968;2023-12-20T07:48:06;98109.69;;;9.10;60.25
49729;BME280;66333;49.798;10.968;2023-12-20T07:50:33;98108.88;;;9.09;60.23
49729;BME280;66333;49.798;10.968;2023-12-20T07:52:59;98111.31;;;9.11;60.14
49729;BME280;66333;49.798;10.968;2023-12-20T07:55:26;98113.13;;;9.10;60.10
49729;BME280;66333;49.798;10.968;2023-12-20T07:57:52;98115.88;;;9.09;60.25
49729;BME280;66333;49.798;10.968;2023-12-20T08:00:19;98112.16;;;9.11;60.35
49729;BME280;66333;49.798;10.968;2023-12-20T08:02:45;98116.03;;;9.07;60.32
49729;BME280;66333;49.798;10.968;2023-12-20T08:05:13;98117.13;;;9.04;60.50
49729;BME280;66333;49.798;10.968;2023-12-20T08:07:40;98123.72;;;9.09;60.27
49729;BME280;66333;49.798;10.968;2023-12-20T08:10:07;98113.28;;;9.09;60.29
49729;BME280;66333;49.798;10.968;2023-12-20T08:12:34;98117.06;;;9.14;60.03
49729;BME280;66333;49.798;10.968;2023-12-20T08:15:01;98109.38;;;9.13;60.05
49729;BME280;66333;49.798;10.968;2023-12-20T08:17:29;98107.47;;;9.15;59.78
49729;BME280;66333;49.798;10.968;2023-12-20T08:19:55;98119.31;;;9.09;60.23
49729;BME280;66333;49.798;10.968;2023-12-20T08:22:23;98101.44;;;9.04;60.20
49729;BME280;66333;49.798;10.968;2023-12-20T08:24:49;98105.84;;;9.04;60.26
49729;BME280;66333;49.798;10.968;2023-12-20T08:27:16;98107.66;;;9.03;60.37
49729;BME280;66333;49.798;10.968;2023-12-20T08:29:43;98107.13;;;9.00;60.52
49729;BME280;66333;49.798;10.968;2023-12-20T08:32:10;98111.63;;;9.08;60.46
49729;BME280;66333;49.798;10.968;2023-12-20T08:34:36;98112.97;;;9.12;60.31
49729;BME280;66333;49.798;10.968;2023-12-20T08:37:03;98112.00;;;9.13;60.12
49729;BME280;66333;49.798;10.968;2023-12-20T08:39:31;98113.63;;;9.14;60.14
49729;BME280;66333;49.798;10.968;2023-12-20T08:41:58;98111.31;;;9.11;60.16
49729;BME280;66333;49.798;10.968;2023-12-20T08:44:25;98112.28;;;9.10;60.14
49729;BME280;66333;49.798;10.968;2023-12-20T08:46:51;98109.69;;;9.10;60.01
49729;BME280;66333;49.798;10.968;2023-12-20T08:49:18;98113.50;;;9.15;59.80
49729;BME280;66333;49.798;10.968;2023-12-20T08:51:44;98121.19;;;9.17;59.86
49729;BME280;66333;49.798;10.968;2023-12-20T08:54:11;98116.25;;;9.14;59.93
49729;BME280;66333;49.798;10.968;2023-12-20T08:56:39;98115.97;;;9.17;59.91
49729;BME280;66333;49.798;10.968;2023-12-20T08:59:06;98118.19;;;9.12;60.10
49729;BME280;66333;49.798;10.968;2023-12-20T09:01:32;98127.47;;;9.06;60.15
49729;BME280;66333;49.798;10.968;2023-12-20T09:03:59;98112.44;;;9.08;60.21
49729;BME280;66333;49.798;10.968;2023-12-20T09:06:25;98129.03;;;9.17;59.88
49729;BME280;66333;49.798;10.968;2023-12-20T09:08:52;98124.09;;;9.14;59.83
49729;BME280;66333;49.798;10.968;2023-12-20T09:11:18;98129.03;;;9.17;59.95
49729;BME280;66333;49.798;10.968;2023-12-20T09:13:46;98136.44;;;9.21;59.63
49729;BME280;66333;49.798;10.968;2023-12-20T09:16:13;98139.34;;;9.18;59.83
49729;BME280;66333;49.798;10.968;2023-12-20T09:18:41;98140.16;;;9.19;59.69
49729;BME280;66333;49.798;10.968;2023-12-20T09:21:07;98141.81;;;9.20;59.65
49729;BME280;66333;49.798;10.968;2023-12-20T09:23:33;98137.56;;;9.19;59.75
49729;BME280;66333;49.798;10.968;2023-12-20T09:26:01;98139.88;;;9.22;59.79
49729;BME280;66333;49.798;10.968;2023-12-20T09:28:29;98138.22;;;9.21;59.67
49729;BME280;66333;49.798;10.968;2023-12-20T09:31:03;98136.59;;;9.20;59.74
49729;BME280;66333;49.798;10.968;2023-12-20T09:33:30;98139.78;;;9.14;59.94
49729;BME280;66333;49.798;10.968;2023-12-20T09:35:57;98147.63;;;9.14;59.88
49729;BME280;66333;49.798;10.968;2023-12-20T09:38:23;98151.50;;;9.10;60.08
49729;BME280;66333;49.798;10.968;2023-12-20T09:40:50;98152.84;;;9.14;59.92
49729;BME280;66333;49.798;10.968;2023-12-20T09:43:19;98154.28;;;9.08;60.09
49729;BME280;66333;49.798;10.968;2023-12-20T09:45:47;98149.31;;;9.05;60.21
49729;BME280;66333;49.798;10.968;2023-12-20T09:48:17;98154.13;;;9.10;60.02
49729;BME280;66333;49.798;10.968;2023-12-20T09:50:44;98142.84;;;9.09;60.13
49729;BME280;66333;49.798;10.968;2023-12-20T09:53:15;98152.06;;;9.03;60.28
49729;BME280;66333;49.798;10.968;2023-12-20T09:55:42;98145.78;;;8.96;60.61
49729;BME280;66333;49.798;10.968;2023-12-20T09:58:08;98148.78;;;9.01;60.36
49729;BME280;66333;49.798;10.968;2023-12-20T10:00:35;98146.84;;;9.03;60.20
49729;BME280;66333;49.798;10.968;2023-12-20T10:03:02;98149.75;;;9.00;60.31
49729;BME280;66333;49.798;10.968;2023-12-20T10:05:31;98151.31;;;8.93;60.55
49729;BME280;66333;49.798;10.968;2023-12-20T10:07:59;98143.56;;;9.01;60.32
49729;BME280;66333;49.798;10.968;2023-12-20T10:10:26;98141.16;;;8.90;60.63
49729;BME280;66333;49.798;10.968;2023-12-20T10:13:03;98143.06;;;8.88;60.67
49729;BME280;66333;49.798;10.968;2023-12-20T10:15:32;98140.19;;;8.91;60.58
49729;BME280;66333;49.798;10.968;2023-12-20T10:17:58;98141.81;;;8.92;60.70
49729;BME280;66333;49.798;10.968;2023-12-20T10:20:25;98139.22;;;8.92;60.65
49729;BME280;66333;49.798;10.968;2023-12-20T10:22:54;98133.00;;;8.93;60.62
49729;BME280;66333;49.798;10.968;2023-12-20T10:25:21;98124.09;;;8.86;60.74
49729;BME280;66333;49.798;10.968;2023-12-20T10:27:49;98118.31;;;8.92;60.66
49729;BME280;66333;49.798;10.968;2023-12-20T10:30:16;98110.47;;;8.92;60.63
49729;BME280;66333;49.798;10.968;2023-12-20T10:32:43;98115.03;;;8.90;60.68
49729;BME280;66333;49.798;10.968;2023-12-20T10:35:09;98118.00;;;8.95;60.55
49729;BME280;66333;49.798;10.968;2023-12-20T10:37:36;98113.22;;;8.91;60.66
49729;BME280;66333;49.798;10.968;2023-12-20T10:40:06;98106.47;;;8.88;60.70
49729;BME280;66333;49.798;10.968;2023-12-20T10:42:33;98105.41;;;8.91;60.66
49729;BME280;66333;49.798;10.968;2023-12-20T10:45:03;98093.41;;;8.88;60.82
49729;BME280;66333;49.798;10.968;2023-12-20T10:47:30;98097.69;;;8.89;60.78
49729;BME280;66333;49.798;10.968;2023-12-20T10:49:59;98095.00;;;8.81;60.92
49729;BME280;66333;49.798;10.968;2023-12-20T10:52:27;98090.28;;;8.85;60.94
49729;BME280;66333;49.798;10.968;2023-12-20T10:54:54;98083.84;;;8.79;61.07
49729;BME280;66333;49.798;10.968;2023-12-20T10:57:21;98084.81;;;8.78;61.12
49729;BME280;66333;49.798;10.968;2023-12-20T10:59:48;98070.50;;;8.82;60.98
49729;BME280;66333;49.798;10.968;2023-12-20T11:02:17;98075.34;;;8.77;61.14
49729;BME280;66333;49.798;10.968;2023-12-20T11:04:47;98072.41;;;8.80;61.16
49729;BME280;66333;49.798;10.968;2023-12-20T11:07:21;98073.84;;;8.74;61.23
49729;BME280;66333;49.798;10.968;2023-12-20T11:09:56;98063.41;;;8.74;61.27
49729;BME280;66333;49.798;10.968;2023-12-20T11:12:34;98058.69;;;8.78;61.11
49729;BME280;66333;49.798;10.968;2023-12-20T11:15:02;98057.59;;;8.81;61.08
49729;BME280;66333;49.798;10.968;2023-12-20T11:17:30;98056.72;;;8.90;60.68
49729;BME280;66333;49.798;10.968;2023-12-20T11:20:05;98063.03;;;8.87;60.82
49729;BME280;66333;49.798;10.968;2023-12-20T11:22:32;98064.69;;;8.88;60.73
49729;BME280;66333;49.798;10.968;2023-12-20T11:25:03;98063.22;;;9.03;60.61
49729;BME280;66333;49.798;10.968;2023-12-20T11:27:31;98054.13;;;9.08;60.64
49729;BME280;66333;49.798;10.968;2023-12-20T11:29:58;98065.69;;;9.05;60.63
49729;BME280;66333;49.798;10.968;2023-12-20T11:32:29;98070.78;;;9.07;60.53
49729;BME280;66333;49.798;10.968;2023-12-20T11:34:57;98068.44;;;9.03;60.73
49729;BME280;66333;49.798;10.968;2023-12-20T11:37:29;98073.97;;;9.00;60.89
49729;BME280;66333;49.798;10.968;2023-12-20T11:40:00;98064.41;;;8.91;60.98
49729;BME280;66333;49.798;10.968;2023-12-20T11:42:28;98054.78;;;8.92;61.06
49729;BME280;66333;49.798;10.968;2023-12-20T11:44:55;98069.63;;;8.91;61.03
49729;BME280;66333;49.798;10.968;2023-12-20T11:47:22;98065.81;;;8.86;61.16
49729;BME280;66333;49.798;10.968;2023-12-20T11:49:49;98056.63;;;8.82;61.33
49729;BME280;66333;49.798;10.968;2023-12-20T11:52:17;98060.00;;;8.92;61.02
49729;BME280;66333;49.798;10.968;2023-12-20T11:54:44;98066.03;;;8.92;60.96
49729;BME280;66333;49.798;10.968;2023-12-20T11:57:10;98066.72;;;8.94;61.09
49729;BME280;66333;49.798;10.968;2023-12-20T11:59:37;98069.25;;;8.86;61.32
49729;BME280;66333;49.798;10.968;2023-12-20T12:02:05;98070.75;;;8.89;61.21
49729;BME280;66333;49.798;10.968;2023-12-20T12:04:32;98065.53;;;8.89;61.15
49729;BME280;66333;49.798;10.968;2023-12-20T12:06:58;98065.22;;;8.92;60.99
49729;BME280;66333;49.798;10.968;2023-12-20T12:09:24;98068.00;;;8.90;61.09
49729;BME280;66333;49.798;10.968;2023-12-20T12:11:51;98065.38;;;8.90;61.13
49729;BME280;66333;49.798;10.968;2023-12-20T12:14:18;98066.63;;;8.86;61.24
49729;BME280;66333;49.798;10.968;2023-12-20T12:16:45;98075.53;;;8.93;61.09
49729;BME280;66333;49.798;10.968;2023-12-20T12:19:21;98071.28;;;8.92;60.90
49729;BME280;66333;49.798;10.968;2023-12-20T12:21:48;98068.25;;;8.87;61.15
49729;BME280;66333;49.798;10.968;2023-12-20T12:24:15;98064.69;;;8.88;61.13
49729;BME280;66333;49.798;10.968;2023-12-20T12:26:41;98061.41;;;8.86;61.18
49729;BME280;66333;49.798;10.968;2023-12-20T12:29:07;98056.47;;;8.83;61.25
49729;BME280;66333;49.798;10.968;2023-12-20T12:31:34;98066.94;;;8.83;61.51
49729;BME280;66333;49.798;10.968;2023-12-20T12:34:01;98062.38;;;8.85;61.40
49729;BME280;66333;49.798;10.968;2023-12-20T12:36:29;98062.06;;;8.88;61.14
49729;BME280;66333;49.798;10.968;2023-12-20T12:38:56;98059.09;;;8.83;61.18
49729;BME280;66333;49.798;10.968;2023-12-20T12:41:23;98052.59;;;8.87;61.25
49729;BME280;66333;49.798;10.968;2023-12-20T12:43:49;98046.69;;;8.85;61.06
49729;BME280;66333;49.798;10.968;2023-12-20T12:46:16;98041.56;;;8.93;60.96
49729;BME280;66333;49.798;10.968;2023-12-20T12:48:42;98052.59;;;8.87;61.04
49729;BME280;66333;49.798;10.968;2023-12-20T12:51:09;98051.81;;;8.77;61.48
49729;BME280;66333;49.798;10.968;2023-12-20T12:53:39;98056.75;;;8.80;61.17
49729;BME280;66333;49.798;10.968;2023-12-20T12:56:06;98055.00;;;8.81;61.38
49729;BME280;66333;49.798;10.968;2023-12-20T12:58:33;98047.97;;;8.81;61.36